createdAt,value
2023-02-21T00:01:15.137Z,29.35
2023-02-21T00:04:38.619Z,31.58
2023-02-21T00:08:02.333Z,37.72
2023-02-21T00:11:25.491Z,31.05
2023-02-21T00:14:48.749Z,37.45
2023-02-21T00:18:12.276Z,31.45
2023-02-21T00:21:35.651Z,27.10
2023-02-21T00:24:58.992Z,39.70
2023-02-21T00:28:25.356Z,32.38
2023-02-21T00:31:48.571Z,26.13
2023-02-21T00:35:12.923Z,30.52
2023-02-21T00:38:36.006Z,31.02
2023-02-21T00:41:59.074Z,27.48
2023-02-21T00:45:22.892Z,34.78
2023-02-21T00:48:45.793Z,35.50
2023-02-21T00:52:10.036Z,34.22
2023-02-21T00:58:56.920Z,33.17
2023-02-21T01:02:29.617Z,36.10
2023-02-21T01:05:52.918Z,34.67
2023-02-21T01:09:16.224Z,31.67
2023-02-21T01:12:39.399Z,34.58
2023-02-21T01:16:03.747Z,35.65
2023-02-21T01:19:27.145Z,40.67
2023-02-21T01:22:50.247Z,38.47
2023-02-21T01:26:16.368Z,41.65
2023-02-21T01:29:39.632Z,43.42
2023-02-21T01:33:03.070Z,42.35
2023-02-21T01:36:27.224Z,42.23
2023-02-21T01:39:51.819Z,37.17
2023-02-21T01:43:15.192Z,40.22
2023-02-21T01:46:39.825Z,38.88
2023-02-21T01:50:03.094Z,39.50
2023-02-21T01:53:51.176Z,42.42
2023-02-21T01:57:17.495Z,34.95
2023-02-21T02:00:40.246Z,37.67
2023-02-21T02:04:05.992Z,36.42
2023-02-21T02:07:31.754Z,36.72
2023-02-21T02:10:54.740Z,42.90
2023-02-21T02:14:20.588Z,45.28
2023-02-21T02:17:43.128Z,37.58
2023-02-21T02:21:06.075Z,43.30
2023-02-21T02:24:41.664Z,43.08
2023-02-21T02:28:08.732Z,41.70
2023-02-21T02:31:54.344Z,41.70
2023-02-21T02:35:04.918Z,43.22
2023-02-21T02:38:21.552Z,39.40
2023-02-21T02:41:29.335Z,48.00
2023-02-21T02:44:50.603Z,41.10
2023-02-21T02:48:02.697Z,41.28
2023-02-21T02:51:12.209Z,40.35
2023-02-21T02:54:17.648Z,33.40
2023-02-21T02:57:22.276Z,45.08
2023-02-21T03:00:32.413Z,45.50
2023-02-21T03:04:05.909Z,50.75
2023-02-21T03:07:41.061Z,49.03
2023-02-21T03:11:13.349Z,42.45
2023-02-21T03:14:23.601Z,37.80
2023-02-21T03:17:32.534Z,46.22
2023-02-21T03:20:39.939Z,37.35
2023-02-21T03:23:46.691Z,40.72
2023-02-21T03:26:56.793Z,50.92
2023-02-21T03:30:28.340Z,50.80
2023-02-21T03:36:45.554Z,51.92
2023-02-21T03:39:51.767Z,53.67
2023-02-21T03:42:59.672Z,51.78
2023-02-21T03:46:07.795Z,48.72
2023-02-21T03:49:12.903Z,57.38
2023-02-21T03:52:17.826Z,51.63
2023-02-21T03:55:22.961Z,51.88
2023-02-21T03:58:28.111Z,55.95
2023-02-21T04:01:32.990Z,48.92
2023-02-21T04:04:38.661Z,39.75
2023-02-21T04:07:49.916Z,44.85
2023-02-21T04:10:54.369Z,38.88
2023-02-21T04:14:01.146Z,32.17
2023-02-21T04:17:06.162Z,37.30
2023-02-21T04:20:11.713Z,40.15
2023-02-21T04:23:22.523Z,38.92
2023-02-21T04:26:30.008Z,45.10
2023-02-21T04:29:34.965Z,37.22
2023-02-21T04:32:40.227Z,37.65
2023-02-21T04:35:50.577Z,37.92
2023-02-21T04:39:07.712Z,35.35
2023-02-21T04:42:12.092Z,37.67
2023-02-21T04:45:16.901Z,34.58
2023-02-21T04:48:21.803Z,47.88
2023-02-21T04:51:27.484Z,43.97
2023-02-21T04:54:32.291Z,42.00
2023-02-21T04:57:36.447Z,45.88
2023-02-21T05:00:40.714Z,43.75
2023-02-21T05:03:45.103Z,36.95
2023-02-21T05:06:49.894Z,47.13
2023-02-21T05:09:54.883Z,42.30
2023-02-21T05:12:59.661Z,49.08
2023-02-21T05:16:04.739Z,37.40
2023-02-21T05:19:09.087Z,44.83
2023-02-21T05:22:13.898Z,38.55
2023-02-21T05:25:22.827Z,37.70
2023-02-21T05:28:28.255Z,41.47
2023-02-21T05:31:33.729Z,42.92
2023-02-21T05:34:38.122Z,48.20
2023-02-21T05:37:42.877Z,46.38
2023-02-21T05:40:47.383Z,40.53
2023-02-21T05:43:53.108Z,44.10
2023-02-21T05:46:57.640Z,40.80
2023-02-21T05:50:04.176Z,38.85
2023-02-21T05:53:10.424Z,39.10
2023-02-21T05:56:15.897Z,35.95
2023-02-21T05:59:21.860Z,44.67
2023-02-21T06:02:26.668Z,37.78
2023-02-21T06:05:31.293Z,37.35
2023-02-21T06:08:47.780Z,38.35
2023-02-21T06:11:56.098Z,46.72
2023-02-21T06:15:01.049Z,42.88
2023-02-21T06:18:05.713Z,43.92
2023-02-21T06:21:10.372Z,39.08
2023-02-21T06:24:15.004Z,40.55
2023-02-21T06:27:19.837Z,43.78
2023-02-21T06:30:25.154Z,47.30
2023-02-21T06:33:29.737Z,47.05
2023-02-21T06:36:35.706Z,48.55
2023-02-21T06:39:40.444Z,41.75
2023-02-21T06:42:44.978Z,42.33
2023-02-21T06:45:49.687Z,40.00
2023-02-21T06:48:54.943Z,38.67
2023-02-21T06:52:00.435Z,40.38
2023-02-21T06:55:05.430Z,47.28
2023-02-21T06:58:10.804Z,47.75
2023-02-21T07:01:15.527Z,42.78
2023-02-21T07:04:20.761Z,42.28
2023-02-21T07:07:25.536Z,49.38
2023-02-21T07:10:30.892Z,45.75
2023-02-21T07:13:35.653Z,43.17
2023-02-21T07:16:40.341Z,42.83
2023-02-21T07:19:45.002Z,55.97
2023-02-21T07:22:49.872Z,44.08
2023-02-21T07:25:54.909Z,42.40
2023-02-21T07:28:59.642Z,44.75
2023-02-21T07:32:04.749Z,50.90
2023-02-21T07:35:09.516Z,52.22
2023-02-21T07:38:26.684Z,47.78
2023-02-21T07:41:31.646Z,45.47
2023-02-21T07:44:36.194Z,45.88
2023-02-21T07:47:41.034Z,46.03
2023-02-21T07:50:46.306Z,43.05
2023-02-21T07:53:51.018Z,55.25
2023-02-21T07:56:55.923Z,49.30
2023-02-21T08:00:00.816Z,49.83
2023-02-21T08:03:05.294Z,53.33
2023-02-21T08:06:11.051Z,52.83
2023-02-21T08:09:16.122Z,52.40
2023-02-21T08:12:20.201Z,52.45
2023-02-21T08:15:25.130Z,54.63
2023-02-21T08:18:30.132Z,48.85
2023-02-21T08:21:35.558Z,48.42
2023-02-21T08:24:40.363Z,57.30
2023-02-21T08:27:46.440Z,48.05
2023-02-21T08:30:51.095Z,59.45
2023-02-21T08:33:55.808Z,62.17
2023-02-21T08:37:00.285Z,65.60
2023-02-21T08:40:06.074Z,58.10
2023-02-21T08:43:11.263Z,51.08
2023-02-21T08:46:16.156Z,61.90
2023-02-21T08:49:20.526Z,63.53
2023-02-21T08:52:25.359Z,59.90
2023-02-21T08:55:30.100Z,50.72
2023-02-21T08:58:36.832Z,53.25
2023-02-21T09:01:42.790Z,51.60
2023-02-21T09:04:48.687Z,61.63
2023-02-21T09:07:58.700Z,49.67
2023-02-21T09:11:04.013Z,46.67
2023-02-21T09:14:08.851Z,45.45
2023-02-21T09:17:14.614Z,40.50
2023-02-21T09:20:25.874Z,45.35
2023-02-21T09:23:33.542Z,46.20
2023-02-21T09:26:38.457Z,48.55
2023-02-21T09:29:46.220Z,49.28
2023-02-21T09:32:51.922Z,42.92
2023-02-21T09:35:56.314Z,51.50
2023-02-21T09:39:01.158Z,47.80
2023-02-21T09:42:06.183Z,50.03
2023-02-21T09:45:22.274Z,45.45
2023-02-21T09:48:27.491Z,37.28
2023-02-21T09:51:37.087Z,37.90
2023-02-21T09:54:47.403Z,35.80
2023-02-21T09:57:51.986Z,31.65
2023-02-21T10:01:03.494Z,39.92
2023-02-21T10:04:38.426Z,35.08
2023-02-21T10:08:04.079Z,29.20
2023-02-21T10:11:51.569Z,29.83
2023-02-21T10:16:00.227Z,36.40
2023-02-21T10:19:16.789Z,43.13
2023-02-21T10:22:28.390Z,40.45
2023-02-21T10:25:37.302Z,35.00
2023-02-21T10:28:41.933Z,37.97
2023-02-21T10:31:48.925Z,30.25
2023-02-21T10:34:58.674Z,39.10
2023-02-21T10:38:13.252Z,38.92
2023-02-21T10:41:18.956Z,38.33
2023-02-21T10:44:32.494Z,36.80
2023-02-21T10:48:00.627Z,37.13
2023-02-21T10:51:05.321Z,36.35
2023-02-21T10:54:23.961Z,36.13
2023-02-21T10:57:32.023Z,37.25
2023-02-21T11:00:48.107Z,36.17
2023-02-21T11:04:22.496Z,32.22
2023-02-21T11:07:27.461Z,34.90
2023-02-21T11:10:43.868Z,36.88
2023-02-21T11:13:48.416Z,41.38
2023-02-21T11:17:25.078Z,35.25
2023-02-21T11:20:31.228Z,39.13
2023-02-21T11:23:35.889Z,35.92
2023-02-21T11:26:54.731Z,47.13
2023-02-21T11:30:04.922Z,44.97
2023-02-21T11:33:10.588Z,41.97
2023-02-21T11:36:25.719Z,40.58
2023-02-21T11:39:34.904Z,47.28
2023-02-21T11:42:40.153Z,39.95
2023-02-21T11:46:16.717Z,39.95
2023-02-21T11:49:57.825Z,44.60
2023-02-21T11:53:45.325Z,36.67
2023-02-21T11:57:12.055Z,44.05
2023-02-21T12:01:06.270Z,33.20
2023-02-21T12:04:34.682Z,28.77
2023-02-21T12:07:52.248Z,30.15
2023-02-21T12:11:33.744Z,28.20
2023-02-21T12:15:15.199Z,28.85
2023-02-21T12:18:32.297Z,27.83
2023-02-21T12:22:10.618Z,24.25
2023-02-21T12:25:18.558Z,25.08
2023-02-21T12:29:10.214Z,27.65
2023-02-21T12:32:42.888Z,20.88
2023-02-21T12:36:18.414Z,18.23
2023-02-21T12:39:57.337Z,17.20
2023-02-21T12:43:49.803Z,16.63
2023-02-21T12:47:15.640Z,14.45
2023-02-21T12:50:38.835Z,15.95
2023-02-21T12:54:26.669Z,15.77
2023-02-21T12:58:16.225Z,12.85
2023-02-21T13:01:41.834Z,11.23
2023-02-21T13:04:56.164Z,14.80
2023-02-21T13:11:26.292Z,12.20
2023-02-21T13:14:57.279Z,9.15
2023-02-21T13:18:09.022Z,8.60
2023-02-21T13:21:38.085Z,11.68
2023-02-21T13:25:01.929Z,10.43
2023-02-21T13:28:38.085Z,11.05
2023-02-21T13:31:46.594Z,9.68
2023-02-21T13:35:01.501Z,10.52
2023-02-21T13:38:12.398Z,10.48
2023-02-21T13:41:23.984Z,11.10
2023-02-21T13:44:43.916Z,12.85
2023-02-21T13:48:01.368Z,12.57
2023-02-21T13:51:06.666Z,12.50
2023-02-21T13:54:21.032Z,12.73
2023-02-21T13:57:34.476Z,11.45
2023-02-21T14:00:39.389Z,14.50
2023-02-21T14:03:45.650Z,13.73
2023-02-21T14:06:58.742Z,12.77
2023-02-21T14:10:20.415Z,13.18
2023-02-21T14:13:55.063Z,11.77
2023-02-21T14:17:07.697Z,14.18
2023-02-21T14:20:21.903Z,13.93
2023-02-21T14:24:06.942Z,16.35
2023-02-21T14:27:12.880Z,13.63
2023-02-21T14:30:33.017Z,11.63
2023-02-21T14:33:41.885Z,16.77
2023-02-21T14:36:50.359Z,15.60
2023-02-21T14:40:06.955Z,14.57
2023-02-21T14:43:56.140Z,15.30
2023-02-21T14:47:50.392Z,14.88
2023-02-21T14:51:07.531Z,12.38
2023-02-21T14:54:39.707Z,13.13
2023-02-21T14:58:09.272Z,16.00
2023-02-21T15:01:19.990Z,15.10
2023-02-21T15:04:32.347Z,13.35
2023-02-21T15:07:42.698Z,15.45
2023-02-21T15:10:49.834Z,15.95
2023-02-21T15:14:25.366Z,16.02
2023-02-21T15:17:30.729Z,22.85
2023-02-21T15:20:42.383Z,20.27
2023-02-21T15:23:59.441Z,22.65
2023-02-21T15:27:13.291Z,20.20
2023-02-21T15:30:41.232Z,20.75
2023-02-21T15:33:47.370Z,20.65
2023-02-21T15:37:13.134Z,18.80
2023-02-21T15:40:24.067Z,20.23
2023-02-21T15:44:07.203Z,22.05
2023-02-21T15:47:17.879Z,20.02
2023-02-21T15:50:39.213Z,22.10
2023-02-21T15:53:44.584Z,24.77
2023-02-21T15:57:22.426Z,23.85
2023-02-21T16:00:27.465Z,23.08
2023-02-21T16:03:33.654Z,22.05
2023-02-21T16:06:44.889Z,21.45
2023-02-21T16:09:59.897Z,21.85
2023-02-21T16:13:04.394Z,24.63
2023-02-21T16:16:10.065Z,25.83
2023-02-21T16:19:14.893Z,24.02
2023-02-21T16:22:38.784Z,26.35
2023-02-21T16:26:12.264Z,25.75
2023-02-21T16:29:17.198Z,24.85
2023-02-21T16:32:22.318Z,22.23
2023-02-21T16:35:27.785Z,27.27
2023-02-21T16:38:32.373Z,22.42
2023-02-21T16:41:37.030Z,21.27
2023-02-21T16:44:45.555Z,22.67
2023-02-21T16:47:58.252Z,20.55
2023-02-21T16:51:08.061Z,22.75
2023-02-21T16:54:13.430Z,23.73
2023-02-21T16:57:17.873Z,20.33
2023-02-21T17:00:23.111Z,19.67
2023-02-21T17:03:30.970Z,16.42
2023-02-21T17:06:35.549Z,17.35
2023-02-21T17:09:41.894Z,19.13
2023-02-21T17:12:46.875Z,17.63
2023-02-21T17:15:54.453Z,15.82
2023-02-21T17:18:59.554Z,19.15
2023-02-21T17:22:04.334Z,15.20
2023-02-21T17:25:10.036Z,16.80
2023-02-21T17:28:14.635Z,16.08
2023-02-21T17:31:19.851Z,16.35
2023-02-21T17:34:25.269Z,13.75
2023-02-21T17:37:30.325Z,16.25
2023-02-21T17:40:34.836Z,18.13
2023-02-21T17:43:39.543Z,18.52
2023-02-21T17:46:54.800Z,16.23
2023-02-21T17:50:02.490Z,14.63
2023-02-21T17:53:08.898Z,15.43
2023-02-21T17:56:21.424Z,16.88
2023-02-21T17:59:26.340Z,13.63
2023-02-21T18:02:31.285Z,13.73
2023-02-21T18:05:37.592Z,17.13
2023-02-21T18:08:44.970Z,16.15
2023-02-21T18:11:52.716Z,14.20
2023-02-21T18:14:57.474Z,14.55
2023-02-21T18:18:07.085Z,16.27
2023-02-21T18:21:12.454Z,13.13
2023-02-21T18:24:19.375Z,14.43
2023-02-21T18:27:23.935Z,18.83
2023-02-21T18:30:28.980Z,16.92
2023-02-21T18:33:33.831Z,15.65
2023-02-21T18:36:41.056Z,14.95
2023-02-21T18:39:45.942Z,15.10
2023-02-21T18:42:50.783Z,15.40
2023-02-21T18:45:57.985Z,15.40
2023-02-21T18:49:02.634Z,17.13
2023-02-21T18:52:08.116Z,16.90
2023-02-21T18:55:13.289Z,15.32
2023-02-21T18:58:18.143Z,18.65
2023-02-21T19:01:26.192Z,16.23
2023-02-21T19:04:31.412Z,19.45
2023-02-21T19:07:36.636Z,20.00
2023-02-21T19:10:40.970Z,20.17
2023-02-21T19:13:47.416Z,20.08
2023-02-21T19:16:52.064Z,22.60
2023-02-21T19:19:56.938Z,20.52
2023-02-21T19:23:01.907Z,18.65
2023-02-21T19:26:07.439Z,22.10
2023-02-21T19:29:12.367Z,22.10
2023-02-21T19:32:19.057Z,23.00
2023-02-21T19:35:23.354Z,20.15
2023-02-21T19:38:28.547Z,19.92
2023-02-21T19:41:33.593Z,20.25
2023-02-21T19:44:38.292Z,22.13
2023-02-21T19:47:44.006Z,19.65
2023-02-21T19:50:49.123Z,19.23
2023-02-21T19:53:54.325Z,24.67
2023-02-21T19:56:59.366Z,20.63
2023-02-21T20:00:08.747Z,21.67
2023-02-21T20:03:13.495Z,22.27
2023-02-21T20:06:19.074Z,20.52
2023-02-21T20:09:23.935Z,20.10
2023-02-21T20:12:29.419Z,22.40
2023-02-21T20:15:35.730Z,19.65
2023-02-21T20:18:40.542Z,20.83
2023-02-21T20:21:45.957Z,21.38
2023-02-21T20:24:50.508Z,24.60
2023-02-21T20:27:55.643Z,22.02
2023-02-21T20:31:00.429Z,24.63
2023-02-21T20:34:07.220Z,24.17
2023-02-21T20:37:12.203Z,24.30
2023-02-21T20:40:18.791Z,25.23
2023-02-21T20:43:23.655Z,24.85
2023-02-21T20:46:29.009Z,27.48
2023-02-21T20:49:35.307Z,27.75
2023-02-21T20:52:41.335Z,25.67
2023-02-21T20:55:46.663Z,24.60
2023-02-21T20:58:51.799Z,24.33
2023-02-21T21:01:58.168Z,25.67
2023-02-21T21:05:09.242Z,30.13
2023-02-21T21:08:14.857Z,24.00
2023-02-21T21:11:21.607Z,25.30
2023-02-21T21:14:29.414Z,25.63
2023-02-21T21:17:34.395Z,27.75
2023-02-21T21:20:41.403Z,30.08
2023-02-21T21:23:46.959Z,30.67
2023-02-21T21:26:55.223Z,28.20
2023-02-21T21:30:01.241Z,30.92
2023-02-21T21:33:07.527Z,27.00
2023-02-21T21:36:12.693Z,29.88
2023-02-21T21:39:19.327Z,26.40
2023-02-21T21:42:29.256Z,26.08
2023-02-21T21:45:44.192Z,27.38
2023-02-21T21:48:48.661Z,24.25
2023-02-21T21:51:57.365Z,24.88
2023-02-21T21:55:02.427Z,24.88
2023-02-21T21:58:10.677Z,22.25
2023-02-21T22:01:15.762Z,23.48
2023-02-21T22:04:22.150Z,24.63
2023-02-21T22:07:26.853Z,25.15
2023-02-21T22:10:31.760Z,25.52
2023-02-21T22:13:36.700Z,25.38
2023-02-21T22:16:43.707Z,24.65
2023-02-21T22:19:48.042Z,23.08
2023-02-21T22:22:56.965Z,23.52
2023-02-21T22:26:01.776Z,25.23
2023-02-21T22:29:07.591Z,25.35
2023-02-21T22:32:12.736Z,22.85
2023-02-21T22:35:20.170Z,25.58
2023-02-21T22:38:25.181Z,22.73
2023-02-21T22:41:33.148Z,27.52
2023-02-21T22:44:38.852Z,25.35
2023-02-21T22:47:44.804Z,25.17
2023-02-21T22:50:49.873Z,27.80
2023-02-21T22:53:54.785Z,24.83
2023-02-21T22:57:04.289Z,24.85
2023-02-21T23:00:19.231Z,24.25
2023-02-21T23:03:23.781Z,23.58
2023-02-21T23:06:28.382Z,28.67
2023-02-21T23:09:36.963Z,23.45
2023-02-21T23:12:43.694Z,28.70
2023-02-21T23:15:49.007Z,25.27
2023-02-21T23:18:53.417Z,25.17
2023-02-21T23:21:57.993Z,21.40
2023-02-21T23:25:03.981Z,29.42
2023-02-21T23:28:13.636Z,28.33
2023-02-21T23:31:19.817Z,24.30
2023-02-21T23:34:39.731Z,25.42
2023-02-21T23:37:46.794Z,29.15
2023-02-21T23:40:56.122Z,28.50
2023-02-21T23:44:01.073Z,36.25
2023-02-21T23:47:06.145Z,30.67
2023-02-21T23:50:17.171Z,40.67
2023-02-21T23:53:23.131Z,41.72
2023-02-21T23:56:27.814Z,33.58
2023-02-21T23:59:35.448Z,30.90
